Oromocto, Canada
Current Conditions -  °F | °C
As of 12:00 AM on Friday 28 Nov 2014 (Local Time) from CYCX Reporting Station
Scattered Clouds Scattered Clouds  
Wind Chill: 18°   Ceiling: Unl
Heat Index: 18°   Visibility: 15mi
Dew Point: 14°   Wind: 3mph
Humidity: 86%   Direction: 330°NNW
Pressure: 30"   Gusts: NA
Location:  45.84°N, 66.48°W
Report Text: CYCX 280400Z 33003KT 15SM SCT070 M08/M10 A3000 RMK AC0DA-2717FT SLP162
Loading
Personal Weather Stations






























Interactive Weather Map New forecast layout! Learn more

10-Day Weather Forecast

Advertisements
Track Severe Weather on mobile